EST,Max TemperatureF,Mean TemperatureF,Min TemperatureF,Max Dew PointF,MeanDew PointF,Min DewpointF,Max Humidity, Mean Humidity, Min Humidity, Max Sea Level PressureIn, Mean Sea Level PressureIn, Min Sea Level PressureIn, Max VisibilityMiles, Mean VisibilityMiles, Min VisibilityMiles, Max Wind SpeedMPH, Mean Wind SpeedMPH, Max Gust SpeedMPH,PrecipitationIn, CloudCover, Events, WindDirDegrees
2013-2-1,28,22,15,12,3,-2,51,41,34,30.01,29.71,29.43,10,10,10,21,11,31,0.00,4,,294
2013-2-2,24,17,10,12,3,-2,74,52,36,30.16,30.08,30.00,10,10,10,13,6,17,0.00,4,,244
2013-2-3,26,20,15,12,10,9,79,60,47,30.02,29.87,29.69,10,10,2,15,6,17,0.00,7,,11
2013-2-4,26,20,14,10,3,-6,68,47,26,29.83,29.68,29.63,10,10,10,18,8,29,0.00,3,,307
2013-2-5,23,12,1,7,-3,-9,92,50,24,30.00,29.94,29.83,10,10,10,9,2,,0.00,0,,316
2013-2-6,33,22,12,19,6,-9,79,53,28,30.25,30.00,29.90,10,10,10,17,5,23,0.00,5,,307
2013-2-7,19,14,8,-8,-11,-15,48,35,21,30.54,30.44,30.25,10,10,10,16,9,24,0.00,2,,16
2013-2-8,12,9,6,9,3,-13,92,73,34,30.53,30.30,29.89,10,4,0,24,10,34,0.00,8,,26
2013-2-9,19,14,10,10,7,3,92,72,53,30.09,29.86,29.71,10,4,0,33,24,48,0.00,6,,355
2013-2-10,33,20,8,5,-1,-8,79,42,22,30.33,30.27,30.10,10,10,10,15,7,21,0.00,0,,324
2013-2-11,28,16,3,27,14,-4,100,85,62,30.31,29.96,29.56,10,5,0,6,1,,0.00,6,,357
2013-2-12,42,34,26,34,27,25,100,76,49,29.75,29.60,29.51,10,9,2,15,2,23,0.00,6,,286
2013-2-13,39,32,24,25,21,18,86,62,42,29.80,29.76,29.73,10,10,10,13,3,18,0.00,4,,313
2013-2-14,39,30,21,25,18,16,86,61,39,29.98,29.86,29.70,10,10,10,13,3,20,0.00,4,,343
2013-2-15,44,32,19,30,24,16,100,76,49,29.98,29.92,29.88,10,9,4,12,2,16,0.00,5,,167
2013-2-16,33,30,26,30,23,7,100,75,43,29.93,29.88,29.77,10,8,1,16,5,23,0.00,8,,359
2013-2-17,26,20,15,16,7,0,86,59,40,29.76,29.41,29.22,10,7,1,32,18,41,0.00,8,,331
2013-2-18,28,20,12,3,-1,-6,53,41,30,30.01,29.76,29.45,10,10,10,29,19,44,0.00,1,,307
2013-2-19,35,25,15,16,-1,-6,44,33,22,30.07,30.04,29.94,10,10,10,10,3,,0.00,2,,211
2013-2-20,33,30,26,27,18,12,80,58,48,29.62,29.54,29.49,10,10,10,16,9,22,0.00,6,,295
2013-2-21,28,22,17,18,11,3,69,57,49,30.14,29.82,29.63,10,10,8,18,10,25,0.00,4,,322
2013-2-22,37,30,24,19,18,16,74,61,41,30.38,30.31,30.16,10,10,10,15,7,18,0.00,1,,15
2013-2-23,33,28,24,30,25,18,93,83,74,30.33,30.19,30.00,10,8,2,8,2,,0.00,8,,105
2013-2-24,30,29,28,28,27,25,93,92,86,30.00,29.86,29.78,10,2,0,13,7,18,0.00,8,,21
2013-2-25,42,33,24,28,24,21,93,75,46,30.23,30.08,29.90,10,10,4,13,5,,0.00,6,,15
2013-2-26,42,35,28,28,26,21,93,73,42,30.37,30.30,30.23,10,10,7,7,1,,0.00,7,,103
2013-2-27,35,30,26,30,28,25,93,87,75,30.23,30.00,29.68,10,6,0,15,6,28,0.00,6,,57
2013-2-28,37,34,30,36,31,27,100,91,86,29.67,29.57,29.54,10,5,0,16,11,21,0.00,8,,12